createdAt,value
2023-01-09T00:01:14.801Z,6.78
2023-01-09T00:03:42.616Z,5.70
2023-01-09T00:06:10.535Z,5.30
2023-01-09T00:08:38.669Z,6.97
2023-01-09T00:11:06.803Z,7.28
2023-01-09T00:13:35.230Z,6.50
2023-01-09T00:16:03.141Z,5.82
2023-01-09T00:18:32.394Z,4.93
2023-01-09T00:21:00.831Z,6.15
2023-01-09T00:23:28.728Z,6.15
2023-01-09T00:26:03.771Z,6.65
2023-01-09T00:28:31.562Z,5.63
2023-01-09T00:31:00.485Z,5.97
2023-01-09T00:33:31.214Z,7.13
2023-01-09T00:36:00.404Z,7.95
2023-01-09T00:38:28.530Z,4.63
2023-01-09T00:40:57.708Z,7.05
2023-01-09T00:43:31.373Z,6.13
2023-01-09T00:46:01.623Z,6.30
2023-01-09T00:48:29.699Z,5.35
2023-01-09T00:51:00.823Z,5.88
2023-01-09T00:53:31.056Z,6.47
2023-01-09T00:56:02.473Z,6.05
2023-01-09T00:58:30.354Z,5.22
2023-01-09T01:00:58.205Z,5.43
2023-01-09T01:03:26.182Z,9.00
2023-01-09T01:06:11.751Z,5.00
2023-01-09T01:08:41.149Z,5.38
2023-01-09T01:11:11.177Z,7.95
2023-01-09T01:13:40.013Z,7.07
2023-01-09T01:16:09.092Z,4.82
2023-01-09T01:18:36.909Z,4.95
2023-01-09T01:21:07.906Z,4.93
2023-01-09T01:23:35.785Z,5.93
2023-01-09T01:26:07.886Z,7.32
2023-01-09T01:28:35.791Z,5.40
2023-01-09T01:31:03.737Z,5.55
2023-01-09T01:33:31.823Z,5.50
2023-01-09T01:36:04.435Z,6.78
2023-01-09T01:38:33.118Z,6.15
2023-01-09T01:41:02.284Z,7.13
2023-01-09T01:43:50.671Z,5.90
2023-01-09T01:46:18.770Z,3.72
2023-01-09T01:48:47.597Z,5.65
2023-01-09T01:51:18.304Z,5.15
2023-01-09T01:53:49.540Z,6.30
2023-01-09T01:56:20.461Z,6.90
2023-01-09T01:58:53.435Z,7.15
2023-01-09T02:01:22.450Z,5.18
2023-01-09T02:03:51.697Z,5.15
2023-01-09T02:06:19.551Z,6.40
2023-01-09T02:08:48.205Z,5.53
2023-01-09T02:11:18.476Z,7.30
2023-01-09T02:13:46.584Z,9.35
2023-01-09T02:16:29.795Z,6.28
2023-01-09T02:19:07.530Z,8.23
2023-01-09T02:21:46.024Z,7.22
2023-01-09T02:24:46.901Z,5.85
2023-01-09T02:27:26.425Z,6.38
2023-01-09T02:30:26.695Z,7.28
2023-01-09T02:33:06.028Z,7.25
2023-01-09T02:35:59.104Z,7.93
2023-01-09T02:38:33.726Z,7.25
2023-01-09T02:41:06.049Z,8.30
2023-01-09T02:43:33.954Z,7.30
2023-01-09T02:46:01.771Z,8.75
2023-01-09T02:48:32.261Z,7.55
2023-01-09T02:51:12.388Z,7.03
2023-01-09T02:54:06.673Z,7.15
2023-01-09T02:57:07.616Z,6.30
2023-01-09T02:59:44.968Z,6.30
2023-01-09T03:02:29.549Z,5.63
2023-01-09T03:05:08.649Z,7.07
2023-01-09T03:07:42.896Z,7.60
2023-01-09T03:10:17.732Z,6.53
2023-01-09T03:12:48.598Z,6.13
2023-01-09T03:15:19.083Z,4.72
2023-01-09T03:17:49.380Z,8.75
2023-01-09T03:20:23.253Z,8.48
2023-01-09T03:22:55.779Z,7.30
2023-01-09T03:25:23.998Z,5.43
2023-01-09T03:27:56.393Z,5.35
2023-01-09T03:30:24.864Z,5.30
2023-01-09T03:32:52.642Z,5.35
2023-01-09T03:35:21.817Z,4.13
2023-01-09T03:37:49.603Z,5.53
2023-01-09T03:40:17.753Z,6.15
2023-01-09T03:42:45.558Z,5.43
2023-01-09T03:45:13.863Z,4.25
2023-01-09T03:47:41.665Z,3.30
2023-01-09T03:50:10.288Z,5.60
2023-01-09T03:52:39.522Z,3.83
2023-01-09T03:55:07.971Z,6.80
2023-01-09T03:57:35.762Z,4.72
2023-01-09T04:00:04.034Z,4.60
2023-01-09T04:02:31.790Z,5.90
2023-01-09T04:04:59.566Z,5.30
2023-01-09T04:07:27.367Z,5.20
2023-01-09T04:09:56.569Z,4.60
2023-01-09T04:12:24.406Z,4.13
2023-01-09T04:14:52.169Z,4.00
2023-01-09T04:17:19.936Z,5.57
2023-01-09T04:19:47.742Z,4.32
2023-01-09T04:22:15.506Z,4.45
2023-01-09T04:24:43.299Z,5.18
2023-01-09T04:27:13.146Z,4.30
2023-01-09T04:29:40.895Z,4.43
2023-01-09T04:32:08.758Z,4.32
2023-01-09T04:34:36.575Z,4.30
2023-01-09T04:37:04.419Z,5.22
2023-01-09T04:39:32.197Z,4.05
2023-01-09T04:41:59.936Z,5.05
2023-01-09T04:44:29.651Z,5.68
2023-01-09T04:46:58.905Z,5.50
2023-01-09T04:49:26.916Z,5.47
2023-01-09T04:51:55.107Z,5.00
2023-01-09T04:54:23.031Z,5.72
2023-01-09T04:56:51.225Z,4.85
2023-01-09T04:59:19.043Z,5.35
2023-01-09T05:01:48.367Z,6.03
2023-01-09T05:04:16.294Z,5.15
2023-01-09T05:06:44.085Z,5.82
2023-01-09T05:09:11.875Z,5.40
2023-01-09T05:11:39.669Z,4.65
2023-01-09T05:14:07.441Z,4.60
2023-01-09T05:16:35.987Z,5.15
2023-01-09T05:19:05.296Z,4.30
2023-01-09T05:21:33.125Z,4.75
2023-01-09T05:24:00.928Z,5.82
2023-01-09T05:26:28.717Z,5.82
2023-01-09T05:28:57.337Z,5.63
2023-01-09T05:31:26.980Z,5.05
2023-01-09T05:33:55.082Z,4.80
2023-01-09T05:36:24.246Z,5.78
2023-01-09T05:38:52.039Z,4.68
2023-01-09T05:41:19.863Z,3.92
2023-01-09T05:43:47.612Z,4.45
2023-01-09T05:46:15.413Z,4.78
2023-01-09T05:48:44.511Z,4.22
2023-01-09T05:51:12.374Z,5.38
2023-01-09T05:53:41.548Z,3.65
2023-01-09T05:56:11.349Z,3.60
2023-01-09T05:58:39.527Z,3.10
2023-01-09T06:01:08.371Z,3.00
2023-01-09T06:03:36.212Z,3.17
2023-01-09T06:06:04.118Z,3.25
2023-01-09T06:08:31.895Z,3.05
2023-01-09T06:11:01.043Z,3.92
2023-01-09T06:13:28.884Z,5.97
2023-01-09T06:15:56.740Z,3.72
2023-01-09T06:18:24.527Z,3.15
2023-01-09T06:20:52.331Z,3.67
2023-01-09T06:23:20.161Z,3.33
2023-01-09T06:25:47.935Z,3.70
2023-01-09T06:28:17.072Z,3.80
2023-01-09T06:30:45.396Z,3.20
2023-01-09T06:33:13.184Z,4.20
2023-01-09T06:35:42.113Z,4.07
2023-01-09T06:38:10.013Z,3.75
2023-01-09T06:40:37.792Z,3.83
2023-01-09T06:43:05.628Z,3.42
2023-01-09T06:45:34.838Z,3.90
2023-01-09T06:48:02.687Z,3.20
2023-01-09T06:50:30.480Z,3.45
2023-01-09T06:52:58.262Z,4.85
2023-01-09T06:55:26.377Z,4.10
2023-01-09T06:57:54.916Z,3.70
2023-01-09T07:00:23.248Z,6.25
2023-01-09T07:02:52.385Z,4.15
2023-01-09T07:05:20.213Z,5.20
2023-01-09T07:07:48.039Z,3.88
2023-01-09T07:10:16.339Z,3.72
2023-01-09T07:12:44.131Z,4.35
2023-01-09T07:15:12.657Z,5.25
2023-01-09T07:17:40.496Z,3.47
2023-01-09T07:20:11.306Z,4.82
2023-01-09T07:22:39.114Z,6.25
2023-01-09T07:25:07.456Z,6.72
2023-01-09T07:27:35.283Z,4.30
2023-01-09T07:30:03.535Z,5.20
2023-01-09T07:32:31.325Z,4.70
2023-01-09T07:34:59.290Z,4.70
2023-01-09T07:37:28.429Z,4.38
2023-01-09T07:39:56.197Z,5.25
2023-01-09T07:42:24.056Z,5.68
2023-01-09T07:44:52.105Z,3.85
2023-01-09T07:47:20.009Z,4.55
2023-01-09T07:49:47.768Z,3.72
2023-01-09T07:52:15.595Z,4.10
2023-01-09T07:54:44.704Z,3.65
2023-01-09T07:57:12.552Z,3.80
2023-01-09T07:59:40.313Z,5.63
2023-01-09T08:02:09.372Z,3.95
2023-01-09T08:04:37.190Z,5.00
2023-01-09T08:07:04.963Z,4.65
2023-01-09T08:09:32.755Z,3.70
2023-01-09T08:12:01.907Z,4.68
2023-01-09T08:14:29.720Z,4.18
2023-01-09T08:16:57.515Z,5.30
2023-01-09T08:19:25.332Z,4.43
2023-01-09T08:21:53.084Z,5.05
2023-01-09T08:24:20.916Z,5.32
2023-01-09T08:26:48.769Z,4.68
2023-01-09T08:29:17.889Z,4.40
2023-01-09T08:31:45.700Z,5.18
2023-01-09T08:34:13.599Z,6.32
2023-01-09T08:36:41.448Z,16.80
2023-01-09T08:39:10.807Z,5.03
2023-01-09T08:41:56.075Z,4.97
2023-01-09T08:44:42.671Z,4.65
2023-01-09T08:47:10.650Z,4.13
2023-01-09T08:49:40.451Z,5.90
2023-01-09T08:52:08.619Z,4.18
2023-01-09T08:54:36.971Z,5.25
2023-01-09T08:57:04.843Z,4.47
2023-01-09T08:59:34.215Z,6.32
2023-01-09T09:02:02.125Z,5.45
2023-01-09T09:04:30.210Z,7.03
2023-01-09T09:06:57.972Z,4.55
2023-01-09T09:09:26.276Z,4.60
2023-01-09T09:11:54.197Z,4.38
2023-01-09T09:14:39.323Z,4.05
2023-01-09T09:17:08.656Z,5.30
2023-01-09T09:19:36.445Z,3.88
2023-01-09T09:22:04.229Z,5.60
2023-01-09T09:24:32.061Z,5.22
2023-01-09T09:26:59.834Z,5.22
2023-01-09T09:29:27.616Z,4.53
2023-01-09T09:31:55.366Z,4.65
2023-01-09T09:34:24.501Z,4.80
2023-01-09T09:36:52.350Z,5.47
2023-01-09T09:39:20.171Z,6.53
2023-01-09T09:42:30.069Z,4.83
2023-01-09T09:45:17.770Z,5.78
2023-01-09T09:47:54.737Z,4.40
2023-01-09T09:50:45.660Z,7.03
2023-01-09T09:53:19.460Z,6.03
2023-01-09T09:55:49.499Z,5.13
2023-01-09T09:58:22.777Z,5.88
2023-01-09T10:00:51.946Z,5.25
2023-01-09T10:03:33.899Z,6.63
2023-01-09T10:06:08.668Z,5.53
2023-01-09T10:08:43.940Z,5.80
2023-01-09T10:11:17.587Z,5.30
2023-01-09T10:14:05.857Z,6.38
2023-01-09T10:16:46.951Z,7.80
2023-01-09T10:19:29.769Z,6.25
2023-01-09T10:22:06.955Z,5.00
2023-01-09T10:24:46.393Z,6.53
2023-01-09T10:27:24.412Z,6.28
2023-01-09T10:30:03.637Z,14.05
2023-01-09T10:32:44.508Z,9.95
2023-01-09T10:35:36.104Z,9.03
2023-01-09T10:38:16.674Z,5.82
2023-01-09T10:40:49.523Z,9.93
2023-01-09T10:43:30.112Z,8.77
2023-01-09T10:46:01.627Z,6.00
2023-01-09T10:48:33.972Z,9.10
2023-01-09T10:51:02.028Z,8.82
2023-01-09T10:53:37.068Z,6.72
2023-01-09T10:56:23.981Z,10.93
2023-01-09T10:58:53.220Z,7.57
2023-01-09T11:01:27.016Z,6.95
2023-01-09T11:03:54.894Z,5.93
2023-01-09T11:06:26.332Z,10.80
2023-01-09T11:09:00.135Z,11.15
2023-01-09T11:11:35.779Z,8.10
2023-01-09T11:14:14.116Z,9.00
2023-01-09T11:16:52.623Z,11.50
2023-01-09T11:19:20.490Z,8.48
2023-01-09T11:21:48.612Z,10.55
2023-01-09T11:24:29.651Z,7.05
2023-01-09T11:27:29.753Z,11.97
2023-01-09T11:30:16.062Z,6.28
2023-01-09T11:32:45.722Z,10.23
2023-01-09T11:35:23.671Z,9.60
2023-01-09T11:38:01.732Z,9.88
2023-01-09T11:40:36.788Z,9.25
2023-01-09T11:43:12.281Z,10.63
2023-01-09T11:45:56.332Z,12.30
2023-01-09T11:48:35.287Z,13.05
2023-01-09T11:51:06.752Z,8.48
2023-01-09T11:54:06.434Z,8.98
2023-01-09T11:56:37.248Z,8.80
2023-01-09T11:59:12.094Z,9.63
2023-01-09T12:02:13.258Z,10.43
2023-01-09T12:04:49.364Z,7.35
2023-01-09T12:07:35.513Z,7.00
2023-01-09T12:10:13.345Z,8.98
2023-01-09T12:12:52.093Z,13.32
2023-01-09T12:15:27.657Z,9.82
2023-01-09T12:18:11.866Z,7.50
2023-01-09T12:20:56.267Z,10.80
2023-01-09T12:23:40.716Z,13.65
2023-01-09T12:26:17.033Z,16.73
2023-01-09T12:29:10.334Z,8.02
2023-01-09T12:31:53.534Z,12.52
2023-01-09T12:34:37.156Z,10.13
2023-01-09T12:37:23.428Z,10.70
2023-01-09T12:40:04.051Z,9.73
2023-01-09T12:42:44.527Z,9.98
2023-01-09T12:45:34.358Z,9.60
2023-01-09T12:48:15.763Z,11.43
2023-01-09T12:51:06.927Z,9.60
2023-01-09T12:53:38.375Z,8.00
2023-01-09T12:56:10.063Z,6.50
2023-01-09T12:58:44.557Z,10.63
2023-01-09T13:01:18.330Z,6.70
2023-01-09T13:03:55.617Z,10.77
2023-01-09T13:06:25.513Z,10.23
2023-01-09T13:08:58.880Z,10.68
2023-01-09T13:11:35.206Z,13.77
2023-01-09T13:14:07.690Z,8.37
2023-01-09T13:16:41.802Z,9.45
2023-01-09T13:19:17.172Z,6.47
2023-01-09T13:21:45.653Z,7.22
2023-01-09T13:24:18.972Z,9.73
2023-01-09T13:26:48.831Z,9.13
2023-01-09T13:29:23.303Z,11.48
2023-01-09T13:32:12.405Z,7.85
2023-01-09T13:34:40.958Z,10.25
2023-01-09T13:37:23.726Z,7.90
2023-01-09T13:40:02.329Z,9.75
2023-01-09T13:42:46.380Z,7.80
2023-01-09T13:45:25.629Z,12.38
2023-01-09T13:48:40.608Z,11.23
2023-01-09T13:51:54.630Z,8.18
2023-01-09T13:54:59.611Z,11.77
2023-01-09T13:57:29.866Z,10.70
2023-01-09T14:00:20.574Z,11.75
2023-01-09T14:02:58.083Z,8.93
2023-01-09T14:06:14.109Z,8.90
2023-01-09T14:08:44.819Z,6.45
2023-01-09T14:11:20.870Z,12.38
2023-01-09T14:14:00.120Z,10.57
2023-01-09T14:16:29.990Z,9.30
2023-01-09T14:19:04.574Z,10.82
2023-01-09T14:21:53.459Z,10.88
2023-01-09T14:24:26.449Z,12.95
2023-01-09T14:26:57.176Z,12.80
2023-01-09T14:29:45.956Z,9.27
2023-01-09T14:32:43.363Z,10.32
2023-01-09T14:35:18.823Z,8.68
2023-01-09T14:38:03.279Z,7.35
2023-01-09T14:40:34.323Z,12.93
2023-01-09T14:43:18.352Z,7.45
2023-01-09T14:45:49.958Z,9.50
2023-01-09T14:48:18.438Z,10.60
2023-01-09T14:50:51.212Z,8.45
2023-01-09T14:53:25.517Z,8.68
2023-01-09T14:55:57.767Z,8.90
2023-01-09T14:58:27.184Z,6.88
2023-01-09T15:01:01.457Z,7.20
2023-01-09T15:03:34.901Z,8.65
2023-01-09T15:06:03.122Z,7.25
2023-01-09T15:08:31.999Z,6.78
2023-01-09T15:11:01.495Z,8.48
2023-01-09T15:13:36.170Z,8.30
2023-01-09T15:16:07.050Z,7.57
2023-01-09T15:18:42.945Z,10.40
2023-01-09T15:21:21.783Z,7.72
2023-01-09T15:23:49.779Z,10.38
2023-01-09T15:26:26.527Z,9.65
2023-01-09T15:28:55.503Z,7.85
2023-01-09T15:31:25.425Z,9.90
2023-01-09T15:33:54.168Z,8.40
2023-01-09T15:36:25.753Z,8.73
2023-01-09T15:38:55.088Z,10.87
2023-01-09T15:42:00.110Z,5.95
2023-01-09T15:44:30.284Z,6.90
2023-01-09T15:47:02.317Z,6.47
2023-01-09T15:49:30.490Z,6.85
2023-01-09T15:51:58.674Z,7.13
2023-01-09T15:54:30.467Z,7.43
2023-01-09T15:57:35.614Z,9.07
2023-01-09T16:00:33.447Z,7.05
2023-01-09T16:03:15.784Z,6.50
2023-01-09T16:05:45.919Z,8.97
2023-01-09T16:08:22.246Z,5.10
2023-01-09T16:10:55.316Z,9.27
2023-01-09T16:13:26.674Z,7.50
2023-01-09T16:15:55.625Z,7.32
2023-01-09T16:18:30.260Z,5.97
2023-01-09T16:21:23.034Z,10.50
2023-01-09T16:24:00.794Z,8.23
2023-01-09T16:26:30.628Z,8.20
2023-01-09T16:29:34.983Z,5.50
2023-01-09T16:32:04.049Z,9.70
2023-01-09T16:34:32.303Z,11.10
2023-01-09T16:37:02.792Z,6.60
2023-01-09T16:39:30.825Z,7.82
2023-01-09T16:42:16.503Z,5.55
2023-01-09T16:44:45.835Z,11.30
2023-01-09T16:47:13.915Z,8.80
2023-01-09T16:49:41.680Z,10.40
2023-01-09T16:52:18.629Z,8.93
2023-01-09T16:54:47.491Z,9.35
2023-01-09T16:57:20.288Z,8.97
2023-01-09T16:59:49.888Z,8.82
2023-01-09T17:02:20.723Z,10.00
2023-01-09T17:04:48.752Z,8.80
2023-01-09T17:07:18.010Z,9.65
2023-01-09T17:09:47.646Z,8.40
2023-01-09T17:12:19.676Z,12.88
2023-01-09T17:14:49.491Z,9.75
2023-01-09T17:17:18.094Z,7.50
2023-01-09T17:19:46.842Z,10.30
2023-01-09T17:22:15.152Z,6.57
2023-01-09T17:25:00.865Z,7.57
2023-01-09T17:27:52.525Z,7.65
2023-01-09T17:30:22.048Z,7.57
2023-01-09T17:32:50.146Z,6.93
2023-01-09T17:35:18.176Z,9.13
2023-01-09T17:37:46.043Z,7.97
2023-01-09T17:40:19.271Z,10.57
2023-01-09T17:42:47.134Z,7.35
2023-01-09T17:45:16.380Z,10.52
2023-01-09T17:47:45.521Z,10.60
2023-01-09T17:50:22.210Z,6.85
2023-01-09T17:52:50.960Z,9.15
2023-01-09T17:55:18.853Z,6.85
2023-01-09T17:57:46.818Z,9.90
2023-01-09T18:00:24.026Z,11.87
2023-01-09T18:02:53.686Z,12.00
2023-01-09T18:05:21.789Z,17.45
2023-01-09T18:07:50.081Z,14.80
2023-01-09T18:10:20.143Z,12.25
2023-01-09T18:12:48.591Z,13.37
2023-01-09T18:15:16.812Z,9.00
2023-01-09T18:17:44.854Z,10.40
2023-01-09T18:20:14.350Z,9.73
2023-01-09T18:22:42.229Z,10.40
2023-01-09T18:25:10.929Z,9.87
2023-01-09T18:27:39.307Z,10.10
2023-01-09T18:30:08.309Z,9.50
2023-01-09T18:32:36.164Z,10.25
2023-01-09T18:35:04.160Z,10.85
2023-01-09T18:37:33.315Z,11.23
2023-01-09T18:40:01.047Z,8.85
2023-01-09T18:42:28.923Z,9.75
2023-01-09T18:44:56.686Z,10.63
2023-01-09T18:47:24.607Z,12.90
2023-01-09T18:49:52.459Z,9.73
2023-01-09T18:52:20.340Z,11.80
2023-01-09T18:54:49.553Z,9.95
2023-01-09T18:57:17.542Z,9.80
2023-01-09T18:59:45.373Z,12.45
2023-01-09T19:02:20.623Z,9.30
2023-01-09T19:04:48.524Z,10.32
2023-01-09T19:07:16.805Z,14.38
2023-01-09T19:09:44.825Z,11.80
2023-01-09T19:12:14.054Z,12.30
2023-01-09T19:14:41.889Z,11.33
2023-01-09T19:17:09.638Z,11.45
2023-01-09T19:19:37.458Z,12.02
2023-01-09T19:22:05.379Z,11.38
2023-01-09T19:24:33.327Z,13.45
2023-01-09T19:27:01.432Z,15.13
2023-01-09T19:29:30.652Z,10.73
2023-01-09T19:31:59.457Z,13.77
2023-01-09T19:34:27.359Z,11.18
2023-01-09T19:36:55.170Z,13.18
2023-01-09T19:39:23.083Z,11.63
2023-01-09T19:41:50.888Z,15.15
2023-01-09T19:44:19.012Z,12.57
2023-01-09T19:46:48.231Z,16.27
2023-01-09T19:49:16.102Z,9.93
2023-01-09T19:51:44.666Z,11.93
2023-01-09T19:54:13.136Z,15.38
2023-01-09T19:56:43.941Z,13.50
2023-01-09T19:59:13.571Z,14.02
2023-01-09T20:01:42.560Z,13.80
2023-01-09T20:04:15.031Z,12.90
2023-01-09T20:06:45.279Z,13.02
2023-01-09T20:09:15.010Z,13.43
2023-01-09T20:11:44.749Z,14.00
2023-01-09T20:14:13.779Z,13.95
2023-01-09T20:16:42.803Z,12.90
2023-01-09T20:19:13.102Z,14.40
2023-01-09T20:21:40.958Z,14.18
2023-01-09T20:24:10.049Z,13.55
2023-01-09T20:26:39.556Z,14.85
2023-01-09T20:29:08.574Z,13.40
2023-01-09T20:31:37.436Z,12.85
2023-01-09T20:34:05.664Z,13.52
2023-01-09T20:36:34.931Z,16.17
2023-01-09T20:39:05.154Z,15.82
2023-01-09T20:41:33.411Z,14.67
2023-01-09T20:44:02.855Z,15.27
2023-01-09T20:46:32.684Z,16.33
2023-01-09T20:49:03.434Z,12.75
2023-01-09T20:51:32.071Z,17.83
2023-01-09T20:54:01.369Z,15.67
2023-01-09T20:56:33.852Z,14.13
2023-01-09T20:59:02.256Z,14.60
2023-01-09T21:01:30.146Z,17.20
2023-01-09T21:03:59.734Z,15.65
2023-01-09T21:06:28.503Z,16.60
2023-01-09T21:08:56.350Z,16.40
2023-01-09T21:11:25.555Z,16.95
2023-01-09T21:13:53.566Z,13.88
2023-01-09T21:16:24.501Z,16.20
2023-01-09T21:18:53.453Z,15.37
2023-01-09T21:21:23.069Z,15.32
2023-01-09T21:23:52.915Z,16.30
2023-01-09T21:26:24.366Z,11.77
2023-01-09T21:28:55.251Z,13.77
2023-01-09T21:31:26.224Z,15.13
2023-01-09T21:33:54.656Z,14.60
2023-01-09T21:36:23.005Z,16.35
2023-01-09T21:38:52.145Z,14.85
2023-01-09T21:41:39.228Z,15.05
2023-01-09T21:44:30.272Z,20.07
2023-01-09T21:46:58.382Z,12.90
2023-01-09T21:49:31.165Z,13.13
2023-01-09T21:51:59.289Z,13.73
2023-01-09T21:54:27.193Z,12.60
2023-01-09T21:56:55.807Z,14.97
2023-01-09T21:59:24.957Z,14.90
2023-01-09T22:01:53.296Z,15.23
2023-01-09T22:04:24.265Z,13.75
2023-01-09T22:06:52.175Z,14.68
2023-01-09T22:09:19.984Z,13.40
2023-01-09T22:11:48.117Z,17.35
2023-01-09T22:14:17.952Z,13.35
2023-01-09T22:16:47.414Z,16.15
2023-01-09T22:19:18.003Z,12.40
2023-01-09T22:21:46.118Z,15.33
2023-01-09T22:24:14.979Z,12.75
2023-01-09T22:26:43.015Z,12.88
2023-01-09T22:29:10.853Z,14.55
2023-01-09T22:31:39.944Z,12.82
2023-01-09T22:34:14.516Z,14.93
2023-01-09T22:36:42.362Z,12.25
2023-01-09T22:39:14.018Z,15.43
2023-01-09T22:41:41.861Z,13.10
2023-01-09T22:44:10.962Z,11.82
2023-01-09T22:46:38.774Z,15.67
2023-01-09T22:49:06.588Z,14.90
2023-01-09T22:51:35.853Z,12.57
2023-01-09T22:54:03.606Z,13.88
2023-01-09T22:56:32.247Z,12.48
2023-01-09T22:59:00.992Z,15.17
2023-01-09T23:01:29.039Z,11.05
2023-01-09T23:03:56.875Z,14.35
2023-01-09T23:06:25.397Z,10.30
2023-01-09T23:08:54.646Z,14.25
2023-01-09T23:11:38.768Z,10.47
2023-01-09T23:14:06.592Z,12.15
2023-01-09T23:16:34.439Z,14.00
2023-01-09T23:19:02.297Z,12.63
2023-01-09T23:21:30.066Z,11.38
2023-01-09T23:23:59.210Z,11.40
2023-01-09T23:26:27.049Z,10.82
2023-01-09T23:28:54.823Z,11.27
2023-01-09T23:31:22.612Z,10.13
2023-01-09T23:33:50.383Z,11.32
2023-01-09T23:36:18.214Z,11.30
2023-01-09T23:38:46.067Z,12.30
2023-01-09T23:41:15.307Z,11.05
2023-01-09T23:43:42.648Z,12.73
2023-01-09T23:46:11.499Z,8.23
2023-01-09T23:48:39.355Z,12.43
2023-01-09T23:51:07.531Z,10.93
2023-01-09T23:53:35.336Z,11.68
2023-01-09T23:56:03.339Z,8.18
2023-01-09T23:58:32.421Z,15.48
